Repülésmeteorológia

  • METAR LHSM 231945Z 26012KT 9999 FEW053CB BKN083 25/17 Q1014=
  • METAR LHSM 231915Z 25009KT CAVOK 25/19 Q1014=
  • METAR LHSM 231845Z 00000KT CAVOK 23/20 Q1013=
  • METAR LHSM 231815Z 09003KT CAVOK 24/20 Q1013=
  • METAR LHSM 231745Z 19002KT CAVOK 25/21 Q1013=

  • TAF LHSM 231115Z 2312/2321 24007KT CAVOK
  • TAF LHSM 230815Z 2309/2318 24010KT CAVOK
  • TAF LHSM 230515Z 2306/2315 27006KT CAVOK BECMG 2306/2309 28012KT
  • TAF LHSM 221115Z 2212/2221 VRB03KT CAVOK PROB30 TEMPO 2212/2216
  • TAF LHSM 220815Z 2209/2218 22005KT CAVOK PROB30 TEMPO 2209/2215